Time;durP1;ratioP1;P1;durP2;ratioP2;P2;SDS_P1;SDS_P2;PMS_P1;PMS_P2;Temp;Humidity;BMP_temperature;BMP_pressure;BME280_temperature;BME280_humidity;BME280_pressure;Samples;Min_cycle;Max_cycle;Signal;HPM_P1;HPM_P2
2022/05/24 00:02:36;;;;;;;16.33;8.10;;;;;;;8.97;77.85;98263.13;2170994;82;20973;-81
2022/05/24 00:05:36;;;;;;;9.70;8.10;;;;;;;8.95;77.59;98261.81;2171048;82;21068;-81
2022/05/24 00:08:36;;;;;;;8.27;7.47;;;;;;;8.98;77.54;98268.77;2171095;82;20886;-80
2022/05/24 00:11:37;;;;;;;9.90;7.70;;;;;;;8.99;77.49;98260.97;2171928;82;21016;-81
2022/05/24 00:15:38;;;;;;;8.37;7.57;;;;;;;9.01;77.53;98261.86;2171660;82;21001;-81
2022/05/24 00:17:53;;;;;;;8.30;7.50;;;;;;;9.03;77.37;98255.36;2171302;81;20988;-81
2022/05/24 00:20:53;;;;;;;11.47;7.17;;;;;;;9.02;77.40;98260.12;2171137;82;20977;-83
2022/05/24 00:23:53;;;;;;;12.10;6.30;;;;;;;9.01;77.24;98257.95;2171283;82;20961;-83
2022/05/24 00:26:54;;;;;;;8.00;7.17;;;;;;;9.04;77.34;98256.68;2171950;82;21019;-83
2022/05/24 00:29:54;;;;;;;9.57;7.13;;;;;;;9.05;77.03;98256.25;2171453;82;21392;-83
2022/05/24 00:32:55;;;;;;;42.37;34.60;;;;;;;9.03;77.25;98260.14;2173151;82;20990;-81
2022/05/24 00:35:55;;;;;;;14.27;8.57;;;;;;;9.05;77.34;98268.84;2173131;82;20921;-80
2022/05/24 00:38:55;;;;;;;38.37;9.40;;;;;;;9.06;77.12;98267.98;2171436;81;20969;-82
2022/05/24 00:41:56;;;;;;;9.30;6.80;;;;;;;9.09;77.27;98272.34;2171698;82;21020;-81
2022/05/24 00:44:58;;;;;;;8.57;7.17;;;;;;;9.10;77.48;98270.17;2172739;81;20976;-81
2022/05/24 00:47:57;;;;;;;7.30;6.60;;;;;;;9.11;77.16;98281.03;2173222;82;21274;-80
2022/05/24 00:50:57;;;;;;;11.63;6.93;;;;;;;9.11;77.06;98280.61;2172667;81;20940;-81
2022/05/24 00:53:57;;;;;;;11.40;7.07;;;;;;;9.12;77.12;98278.45;2172294;82;21361;-81
2022/05/24 00:56:58;;;;;;;8.67;6.83;;;;;;;9.14;77.18;98278.45;2170834;82;20965;-81
2022/05/24 00:59:58;;;;;;;7.50;6.80;;;;;;;9.14;76.89;98275.85;2172002;82;20958;-81
2022/05/24 01:02:59;;;;;;;9.10;7.30;;;;;;;9.14;76.96;98272.82;2172300;82;20996;-80
2022/05/24 01:05:59;;;;;;;8.50;7.63;;;;;;;9.11;77.01;98267.59;2172190;81;21025;-80
2022/05/24 01:08:59;;;;;;;8.07;6.63;;;;;;;9.10;77.04;98261.94;2170636;82;20981;-80
2022/05/24 01:12:00;;;;;;;7.53;6.73;;;;;;;9.08;77.57;98260.18;2170644;82;21059;-80
2022/05/24 01:15:00;;;;;;;7.40;6.47;;;;;;;9.05;77.40;98254.52;2170492;82;20993;-82
2022/05/24 01:18:01;;;;;;;7.13;6.43;;;;;;;9.01;77.83;98244.94;2172584;82;20965;-81
2022/05/24 01:21:01;;;;;;;17.83;7.60;;;;;;;8.98;77.58;98246.64;2172300;82;21282;-80
2022/05/24 01:24:02;;;;;;;7.63;6.93;;;;;;;8.94;77.52;98255.73;2171569;81;20973;-82
2022/05/24 01:27:02;;;;;;;10.13;7.67;;;;;;;8.94;77.52;98257.45;2171579;81;21012;-81
2022/05/24 01:30:02;;;;;;;8.50;7.60;;;;;;;8.92;77.87;98257.45;2172652;81;20992;-81
2022/05/24 01:36:21;;;;;;;8.23;7.43;;;;;;;8.89;77.53;98249.61;2171338;81;21364;-81
2022/05/24 01:39:22;;;;;;;10.77;7.93;;;;;;;8.89;77.72;98252.21;2170871;82;20929;-81
2022/05/24 01:42:22;;;;;;;23.87;8.53;;;;;;;8.87;77.78;98247.42;2170318;82;21443;-82
2022/05/24 01:45:22;;;;;;;20.67;16.20;;;;;;;8.86;78.10;98239.17;2171495;82;21429;-80
2022/05/24 01:48:23;;;;;;;10.10;9.10;;;;;;;8.86;77.75;98239.60;2170083;82;20988;-84
2022/05/24 01:51:23;;;;;;;8.83;7.50;;;;;;;8.84;78.59;98236.98;2170250;82;20953;-85
2022/05/24 01:54:24;;;;;;;9.03;8.00;;;;;;;8.83;79.37;98235.67;2171925;82;21416;-82
2022/05/24 01:57:24;;;;;;;26.93;9.47;;;;;;;8.80;78.74;98230.02;2171812;82;20965;-79
2022/05/24 02:00:25;;;;;;;9.80;7.93;;;;;;;8.78;78.69;98225.22;2171155;82;20977;-84
2022/05/24 02:03:25;;;;;;;8.30;7.53;;;;;;;8.79;78.68;98217.86;2171344;82;21352;-84
2022/05/24 02:06:25;;;;;;;8.77;7.87;;;;;;;8.79;78.40;98211.78;2170881;82;21041;-85
2022/05/24 02:09:25;;;;;;;12.03;7.97;;;;;;;8.77;78.97;98212.20;2172497;82;21357;-79
2022/05/24 02:12:26;;;;;;;11.07;8.40;;;;;;;8.73;79.70;98205.22;2170122;82;21000;-83
2022/05/24 02:15:26;;;;;;;10.13;8.87;;;;;;;8.72;79.23;98199.14;2172125;82;21025;-81
2022/05/24 02:18:27;;;;;;;8.57;7.77;;;;;;;8.71;80.20;98200.00;2171512;82;21346;-81
2022/05/24 02:21:27;;;;;;;63.80;10.93;;;;;;;8.69;79.08;98200.84;2172488;82;21025;-80
2022/05/24 02:24:27;;;;;;;9.47;7.23;;;;;;;8.67;79.00;98195.63;2170610;82;21005;-80
2022/05/24 02:27:28;;;;;;;8.53;7.70;;;;;;;8.67;79.15;98190.83;2170640;82;21024;-81
2022/05/24 02:30:28;;;;;;;11.17;7.90;;;;;;;8.68;79.19;98190.00;2171018;81;21029;-81
2022/05/24 02:33:29;;;;;;;13.63;8.10;;;;;;;8.66;78.99;98182.14;2170152;82;21301;-83
2022/05/24 02:36:29;;;;;;;8.37;7.53;;;;;;;8.68;79.04;98187.39;2170629;82;21040;-80
2022/05/24 02:39:29;;;;;;;8.17;7.07;;;;;;;8.67;79.29;98187.83;2170489;82;20992;-80
2022/05/24 02:42:30;;;;;;;14.73;8.17;;;;;;;8.69;79.03;98190.02;2170586;82;21044;-82
2022/05/24 02:45:30;;;;;;;16.03;14.03;;;;;;;8.70;79.99;98180.47;2169621;82;21027;-81
2022/05/24 02:48:31;;;;;;;10.87;8.53;;;;;;;8.73;79.41;98183.10;2169646;82;20929;-83
2022/05/24 02:51:31;;;;;;;8.60;7.77;;;;;;;8.76;79.14;98184.00;2170244;82;21407;-81
2022/05/24 02:54:31;;;;;;;8.40;7.50;;;;;;;8.77;79.18;98172.73;2169668;82;21293;-82
2022/05/24 02:57:32;;;;;;;9.20;7.93;;;;;;;8.83;79.60;98170.18;2169495;82;20957;-81
2022/05/24 03:00:32;;;;;;;8.87;7.13;;;;;;;8.91;79.93;98168.94;2171093;82;20997;-84
2022/05/24 03:03:33;;;;;;;8.07;7.27;;;;;;;8.99;79.12;98170.30;2169862;82;21001;-81
2022/05/24 03:09:33;;;;;;;8.67;7.77;;;;;;;9.07;79.30;98166.02;2169456;82;21020;-80
2022/05/24 03:09:33;;;;;;;7.97;6.80;;;;;;;9.14;78.83;98167.80;2171523;82;20960;-82
2022/05/24 03:15:53;;;;;;;14.67;12.63;;;;;;;9.32;78.54;98167.91;2169992;81;20937;-81
2022/05/24 03:18:53;;;;;;;9.40;7.33;;;;;;;9.45;78.07;98171.45;2172869;82;20988;-81
2022/05/24 03:21:54;;;;;;;18.40;8.00;;;;;;;9.55;77.85;98168.94;2170337;82;20965;-82
2022/05/24 03:24:54;;;;;;;9.40;8.40;;;;;;;9.65;77.61;98166.38;2170524;82;21012;-83
2022/05/24 03:27:55;;;;;;;9.73;7.57;;;;;;;9.73;77.32;98164.69;2169389;82;21142;-81
2022/05/24 03:30:56;;;;;;;8.97;6.87;;;;;;;9.80;77.15;98169.05;2170748;82;21048;-84
2022/05/24 03:33:56;;;;;;;8.33;7.47;;;;;;;9.86;76.82;98169.08;2172473;81;20957;-81
2022/05/24 03:36:56;;;;;;;7.97;7.20;;;;;;;9.93;76.58;98175.19;2170255;82;21000;-82
2022/05/24 03:39:57;;;;;;;9.67;7.47;;;;;;;9.99;76.31;98168.26;2169936;81;20929;-81
2022/05/24 03:42:57;;;;;;;9.17;7.07;;;;;;;10.08;76.20;98173.50;2168761;82;21064;-81
2022/05/24 03:45:58;;;;;;;;;;;;;;;;;;;;;
2022/05/24 03:48:58;;;;;;;7.63;6.57;;;;;;;10.32;75.59;98157.50;2170254;82;20912;-82
2022/05/24 03:51:58;;;;;;;9.03;7.23;;;;;;;10.41;75.19;98164.08;2170337;81;20972;-82
2022/05/24 03:54:59;;;;;;;28.83;8.33;;;;;;;10.47;74.86;98162.34;2167428;82;21679;-78
2022/05/24 03:58:00;;;;;;;7.93;7.13;;;;;;;10.56;74.65;98169.75;2169977;82;20956;-82
2022/05/24 04:01:00;;;;;;;7.60;6.90;;;;;;;10.72;74.23;98174.11;2170546;82;21028;-82
2022/05/24 04:04:00;;;;;;;7.00;6.40;;;;;;;10.89;73.88;98164.98;2170842;82;21352;-82
2022/05/24 04:07:00;;;;;;;7.40;6.60;;;;;;;11.09;73.17;98172.36;2170975;82;21004;-83
2022/05/24 04:10:01;;;;;;;8.33;6.57;;;;;;;11.23;72.91;98169.30;2172251;81;21456;-81
2022/05/24 04:13:01;;;;;;;10.60;7.80;;;;;;;11.45;72.33;98165.80;2169820;82;21000;-83
2022/05/24 04:16:01;;;;;;;7.53;6.60;;;;;;;11.59;71.49;98167.07;2169417;82;20960;-82
2022/05/24 04:19:02;;;;;;;7.10;6.50;;;;;;;11.68;70.98;98170.09;2170400;82;20981;-81
2022/05/24 04:22:02;;;;;;;8.27;6.17;;;;;;;11.83;70.48;98164.84;2170197;82;20976;-81
2022/05/24 04:25:03;;;;;;;6.53;5.83;;;;;;;12.06;70.15;98168.66;2170028;82;21998;-81
2022/05/24 04:28:03;;;;;;;6.62;5.92;;;;;;;12.17;69.11;98165.59;2169201;82;20945;-81
2022/05/24 04:31:04;;;;;;;6.62;6.03;;;;;;;12.23;69.18;98175.15;2171358;81;21390;-82
2022/05/24 04:34:04;;;;;;;7.28;6.00;;;;;;;12.35;68.88;98174.64;2171712;82;20996;-80
2022/05/24 04:37:04;;;;;;;6.80;5.50;;;;;;;12.44;68.45;98177.64;2170637;82;20969;-82
2022/05/24 04:40:05;;;;;;;22.05;6.25;;;;;;;12.41;68.16;98180.28;2170198;82;20902;-81
2022/05/24 04:43:05;;;;;;;5.65;5.08;;;;;;;12.38;68.09;98176.37;2168853;82;21381;-81
2022/05/24 04:46:05;;;;;;;6.03;5.42;;;;;;;12.49;67.60;98180.23;2169217;82;21020;-82
2022/05/24 04:49:06;;;;;;;8.43;6.17;;;;;;;12.52;67.69;98186.31;2169121;82;20949;-80
2022/05/24 04:52:06;;;;;;;6.60;6.00;;;;;;;12.58;67.73;98186.27;2168136;82;20981;-82
2022/05/24 04:55:07;;;;;;;122.05;14.93;;;;;;;12.69;67.26;98189.69;2168815;82;20913;-84
2022/05/24 04:58:09;;;;;;;10.80;6.10;;;;;;;12.68;66.92;98183.16;2170392;82;21764;-82
2022/05/24 05:01:07;;;;;;;10.10;5.72;;;;;;;12.65;66.70;98193.64;2169823;82;20906;-82
2022/05/24 05:04:08;;;;;;;6.72;6.03;;;;;;;12.73;66.44;98186.17;2168755;82;21012;-82
2022/05/24 05:07:08;;;;;;;6.53;5.83;;;;;;;12.89;66.72;98182.98;2168876;82;20972;-81
2022/05/24 05:10:09;;;;;;;6.90;6.00;;;;;;;13.23;66.18;98181.02;2169302;82;20929;-82
2022/05/24 05:13:09;;;;;;;6.50;5.90;;;;;;;13.52;65.63;98176.79;2170461;82;20968;-83
2022/05/24 05:16:09;;;;;;;6.05;5.30;;;;;;;13.62;64.56;98167.94;2169448;82;21309;-83
2022/05/24 05:19:10;;;;;;;6.83;5.60;;;;;;;13.59;64.76;98169.73;2169593;82;20929;-82
2022/05/24 05:22:10;;;;;;;9.73;5.47;;;;;;;13.72;64.40;98172.64;2169808;82;21009;-81
2022/05/24 05:25:11;;;;;;;6.37;4.90;;;;;;;13.77;64.44;98178.70;2170862;82;20959;-83
2022/05/24 05:28:11;;;;;;;5.78;5.17;;;;;;;13.93;64.61;98182.91;2171208;82;20985;-85
2022/05/24 05:31:19;;;;;;;5.80;5.30;;;;;;;14.16;63.94;98193.56;2168253;82;21019;-80
2022/05/24 05:34:18;;;;;;;17.98;6.37;;;;;;;14.26;63.53;98182.06;2170492;82;21372;-84
2022/05/24 05:37:18;;;;;;;7.60;5.15;;;;;;;14.27;63.04;98185.11;2170264;82;20953;-83
2022/05/24 05:40:18;;;;;;;13.50;5.80;;;;;;;14.29;62.95;98184.64;2170379;82;20940;-83
2022/05/24 05:43:19;;;;;;;5.33;4.83;;;;;;;14.44;62.89;98188.84;2169691;82;20942;-82
2022/05/24 05:46:19;;;;;;;21.33;6.00;;;;;;;14.58;62.40;98187.76;2169758;82;20964;-82
2022/05/24 05:49:20;;;;;;;6.20;5.65;;;;;;;14.70;62.30;98186.70;2170250;82;21324;-86
2022/05/24 05:52:20;;;;;;;15.65;5.53;;;;;;;14.97;61.75;98178.87;2170651;82;21063;-82
2022/05/24 05:55:20;;;;;;;5.72;5.22;;;;;;;15.53;61.21;98176.56;2171639;82;20953;-84
2022/05/24 05:58:21;;;;;;;7.55;5.00;;;;;;;16.06;59.74;98169.89;2170882;82;21377;-82
2022/05/24 06:01:21;;;;;;;7.83;5.00;;;;;;;16.44;58.76;98171.25;2170727;82;20909;-82
2022/05/24 06:04:22;;;;;;;5.55;4.42;;;;;;;16.75;57.45;98165.34;2170982;82;21247;-84
2022/05/24 06:07:23;;;;;;;6.78;5.08;;;;;;;16.93;56.59;98156.99;2170342;82;21005;-79
2022/05/24 06:10:22;;;;;;;8.75;4.62;;;;;;;17.31;55.63;98161.75;2171337;82;20960;-84
2022/05/24 06:13:27;;;;;;;4.85;4.20;;;;;;;17.90;54.18;98170.76;2171652;82;21893;-81
2022/05/24 06:16:26;;;;;;;6.65;4.20;;;;;;;18.25;54.26;98168.45;2170977;82;20969;-81
2022/05/24 06:19:26;;;;;;;4.60;3.90;;;;;;;18.28;52.51;98164.85;2170997;82;20947;-83
2022/05/24 06:22:27;;;;;;;5.70;3.60;;;;;;;18.26;53.39;98170.18;2171171;82;21428;-83
2022/05/24 06:25:27;;;;;;;8.65;3.98;;;;;;;18.41;51.69;98168.40;2171555;82;20999;-80
2022/05/24 06:28:28;;;;;;;4.15;3.75;;;;;;;18.29;51.33;98170.55;2171032;82;20973;-82
2022/05/24 06:31:28;;;;;;;7.22;4.00;;;;;;;18.10;51.87;98174.15;2171459;82;20985;-83
2022/05/24 06:34:29;;;;;;;4.20;3.90;;;;;;;17.93;52.55;98186.97;2169062;82;20973;-83
2022/05/24 06:37:30;;;;;;;26.93;5.65;;;;;;;17.86;52.67;98186.73;2169691;82;20940;-83
2022/05/24 06:40:29;;;;;;;4.00;3.60;;;;;;;17.79;52.95;98188.22;2170430;82;21448;-83
2022/05/24 06:43:30;;;;;;;4.75;4.12;;;;;;;17.81;52.94;98187.72;2169183;82;21048;-83
2022/05/24 06:46:31;;;;;;;4.75;4.30;;;;;;;17.82;52.10;98180.21;2171021;82;20960;-82
2022/05/24 06:49:30;;;;;;;21.35;5.45;;;;;;;17.88;52.21;98189.73;2170513;82;21337;-81
2022/05/24 06:52:31;;;;;;;6.85;3.95;;;;;;;18.10;52.22;98184.72;2172113;81;20980;-83
2022/05/24 06:55:31;;;;;;;23.95;5.12;;;;;;;18.69;50.85;98174.19;2171584;82;21005;-82
2022/05/24 06:58:32;;;;;;;6.03;4.35;;;;;;;19.32;50.44;98179.66;2170344;81;20941;-83
2022/05/24 07:04:51;;;;;;;4.40;4.00;;;;;;;19.83;47.91;98179.66;2169143;81;20921;-83
2022/05/24 07:07:51;;;;;;;4.93;4.17;;;;;;;19.67;48.22;98180.66;2170375;82;20964;-83
2022/05/24 07:10:52;;;;;;;4.10;3.70;;;;;;;19.59;48.25;98178.73;2169002;81;20925;-83
2022/05/24 07:13:52;;;;;;;5.42;3.67;;;;;;;19.50;48.25;98173.73;2170154;82;20980;-84
2022/05/24 07:16:52;;;;;;;4.42;3.83;;;;;;;19.52;48.01;98173.25;2170092;81;21000;-83
2022/05/24 07:19:53;;;;;;;5.22;3.83;;;;;;;19.57;48.34;98175.28;2169988;82;20956;-85
2022/05/24 07:22:54;;;;;;;4.15;3.75;;;;;;;19.75;48.38;98178.20;2170763;81;20933;-83
2022/05/24 07:25:54;;;;;;;4.20;3.85;;;;;;;19.93;48.36;98173.56;2170473;81;21018;-85
2022/05/24 07:28:54;;;;;;;4.12;3.80;;;;;;;20.07;48.27;98185.02;2170788;82;20960;-83
2022/05/24 07:31:57;;;;;;;5.25;3.77;;;;;;;20.29;47.98;98179.32;2169605;81;20965;-82
2022/05/24 07:34:59;;;;;;;5.87;3.55;;;;;;;20.57;47.18;98176.51;2168204;82;20971;-82
2022/05/24 07:37:58;;;;;;;13.75;3.92;;;;;;;20.61;46.04;98175.00;2170468;82;20960;-83
2022/05/24 07:47:38;;;;;;;7.45;3.80;;;;;;;20.87;45.63;98172.67;2170544;81;20924;-83
2022/05/24 07:50:38;;;;;;;8.03;4.10;;;;;;;21.07;45.52;98171.87;2159928;82;20957;-83
2022/05/24 07:53:38;;;;;;;4.55;4.00;;;;;;;21.19;44.47;98174.02;2169228;81;21041;-84
2022/05/24 07:56:39;;;;;;;6.83;3.83;;;;;;;21.05;43.78;98173.72;2169811;82;21433;-85
2022/05/24 07:59:42;;;;;;;4.55;3.60;;;;;;;20.70;44.53;98164.95;2169883;81;21336;-84
2022/05/24 08:02:40;;;;;;;5.40;3.95;;;;;;;20.56;45.86;98169.48;2169555;82;21001;-84
2022/05/24 08:05:40;;;;;;;11.53;4.42;;;;;;;20.51;46.01;98167.47;2171712;82;20933;-82
2022/05/24 08:08:40;;;;;;;4.70;3.75;;;;;;;20.34;46.49;98167.62;2168656;81;20901;-80
2022/05/24 08:11:45;;;;;;;15.70;5.20;;;;;;;20.22;46.85;98168.09;2168410;82;20938;-83
2022/05/24 08:14:43;;;;;;;5.35;4.12;;;;;;;20.10;46.51;98166.36;2156006;82;20988;-81
2022/05/24 08:17:43;;;;;;;41.83;5.75;;;;;;;19.82;46.91;98165.14;2169121;82;20921;-83
2022/05/24 08:20:44;;;;;;;4.55;4.15;;;;;;;19.61;47.84;98168.96;2169498;82;20981;-84
2022/05/24 08:23:44;;;;;;;5.10;3.72;;;;;;;19.53;48.04;98173.66;2170118;82;20957;-83
2022/05/24 08:26:45;;;;;;;8.68;3.83;;;;;;;19.37;48.54;98179.04;2169932;81;21067;-82
2022/05/24 08:29:45;;;;;;;5.90;4.30;;;;;;;19.30;49.28;98191.61;2169735;82;20960;-83
2022/05/24 08:32:49;;;;;;;7.42;4.58;;;;;;;19.16;49.90;98191.20;2169339;81;21008;-83
2022/05/24 08:35:50;;;;;;;5.12;4.08;;;;;;;18.90;50.82;98189.38;2169721;82;20964;-82
2022/05/24 08:38:49;;;;;;;5.97;4.17;;;;;;;18.86;51.74;98195.67;2171217;82;21461;-84
2022/05/24 08:41:50;;;;;;;7.72;4.35;;;;;;;18.88;51.67;98191.20;2169613;82;21357;-83
2022/05/24 08:48:26;;;;;;;4.03;3.72;;;;;;;19.31;51.94;98184.08;2170523;81;21383;-82
2022/05/24 08:51:25;;;;;;;4.55;3.92;;;;;;;19.69;51.35;98182.80;2169651;82;20972;-84
2022/05/24 08:54:25;;;;;;;4.05;3.65;;;;;;;20.01;50.24;98185.64;2169305;82;20943;-81
2022/05/24 08:57:25;;;;;;;4.97;3.95;;;;;;;20.34;49.95;98185.31;2168859;82;20973;-85
2022/05/24 09:00:26;;;;;;;4.33;3.92;;;;;;;20.72;49.28;98179.89;2168242;82;21376;-81
2022/05/24 09:03:26;;;;;;;6.12;3.92;;;;;;;21.11;48.05;98173.47;2169632;82;20961;-81
2022/05/24 09:06:28;;;;;;;11.50;3.98;;;;;;;21.23;47.93;98188.91;2161566;82;21047;-82
2022/05/24 09:09:29;;;;;;;4.40;4.00;;;;;;;21.19;47.78;98177.99;2157823;82;21407;-81
2022/05/24 09:12:29;;;;;;;5.58;4.03;;;;;;;21.15;47.50;98179.52;2152438;83;21100;-82
2022/05/24 09:15:29;;;;;;;23.73;4.47;;;;;;;21.45;47.86;98178.27;2152388;83;21072;-84
2022/05/24 09:18:31;;;;;;;7.00;3.55;;;;;;;21.83;46.76;98173.98;2151784;83;20977;-85
2022/05/24 09:21:31;;;;;;;7.25;3.58;;;;;;;22.01;45.55;98174.95;2152158;83;21039;-83
2022/05/24 09:24:31;;;;;;;15.85;4.42;;;;;;;22.20;45.72;98178.54;2152720;83;20980;-83
2022/05/24 09:27:32;;;;;;;3.90;3.50;;;;;;;22.42;44.57;98174.42;2152267;83;21376;-84
2022/05/24 09:30:32;;;;;;;7.42;3.33;;;;;;;22.50;43.75;98168.28;2167024;81;20971;-83
2022/05/24 09:33:32;;;;;;;3.90;3.30;;;;;;;22.57;44.21;98176.88;2181453;81;20980;-83
2022/05/24 09:36:32;;;;;;;3.50;3.20;;;;;;;22.78;42.99;98183.83;2170274;82;20937;-82
2022/05/24 09:39:33;;;;;;;6.12;3.80;;;;;;;22.84;43.67;98185.37;2168390;82;20996;-84
2022/05/24 09:42:33;;;;;;;4.72;3.72;;;;;;;22.89;43.49;98193.99;2168219;82;20995;-85
2022/05/24 09:45:36;;;;;;;5.37;3.08;;;;;;;22.86;42.21;98197.66;2168116;82;21023;-83
2022/05/24 09:48:34;;;;;;;3.70;3.30;;;;;;;22.61;42.60;98187.76;2167642;82;21048;-83
2022/05/24 09:51:34;;;;;;;4.70;3.42;;;;;;;22.43;42.91;98188.59;2167701;82;20942;-82
2022/05/24 09:54:35;;;;;;;8.90;3.40;;;;;;;22.13;42.94;98190.38;2168193;82;20929;-83
2022/05/24 09:57:35;;;;;;;5.05;3.92;;;;;;;21.68;44.38;98191.05;2168687;82;21005;-83
2022/05/24 10:00:36;;;;;;;5.05;3.62;;;;;;;21.36;45.30;98195.91;2169641;81;21752;-83
2022/05/24 10:03:36;;;;;;;13.00;4.03;;;;;;;21.09;47.20;98201.86;2167350;82;20956;-83
2022/05/24 10:06:36;;;;;;;4.12;3.72;;;;;;;20.84;49.09;98201.11;2169146;82;21016;-83
2022/05/24 10:09:38;;;;;;;4.65;3.85;;;;;;;20.62;50.35;98201.05;2169630;82;20961;-83
2022/05/24 10:12:37;;;;;;;5.53;3.30;;;;;;;20.39;52.20;98197.06;2169458;82;21082;-81
2022/05/24 10:15:39;;;;;;;4.15;3.75;;;;;;;20.23;53.01;98194.98;2169386;81;20984;-82
2022/05/24 10:18:38;;;;;;;4.15;3.72;;;;;;;20.10;53.54;98197.69;2169977;82;20897;-83
2022/05/24 10:21:38;;;;;;;3.87;3.47;;;;;;;19.99;53.24;98201.19;2170493;82;20949;-83
2022/05/24 10:24:39;;;;;;;5.00;3.67;;;;;;;19.91;53.74;98199.24;2170194;81;21668;-84
2022/05/24 10:27:42;;;;;;;4.30;3.37;;;;;;;19.89;54.40;98204.59;2169316;82;21032;-85
2022/05/24 10:30:40;;;;;;;5.40;4.10;;;;;;;19.72;54.80;98191.95;2169083;82;20961;-83
2022/05/24 10:38:17;;;;;;;12.00;4.20;;;;;;;19.43;55.72;98198.68;2168410;81;20943;-84
2022/05/24 10:40:13;;;;;;;7.10;4.55;;;;;;;19.24;56.91;98201.53;2159620;82;20952;-83
2022/05/24 10:43:13;;;;;;;6.83;4.05;;;;;;;19.16;57.77;98194.31;2167355;82;21708;-81
2022/05/24 10:46:14;;;;;;;4.42;3.83;;;;;;;19.11;57.52;98209.47;2166442;82;20945;-82
2022/05/24 10:49:16;;;;;;;4.37;3.98;;;;;;;19.11;58.58;98209.01;2167452;82;20981;-84
2022/05/24 10:52:16;;;;;;;4.95;4.12;;;;;;;19.17;58.78;98211.45;2167258;82;21677;-83
2022/05/24 10:55:15;;;;;;;8.88;4.42;;;;;;;19.25;59.59;98219.14;2168143;82;20919;-81
2022/05/24 10:58:20;;;;;;;5.17;4.67;;;;;;;19.43;59.58;98213.23;2167688;82;20917;-82
2022/05/24 11:01:21;;;;;;;5.35;4.42;;;;;;;19.69;59.81;98202.66;2156732;82;20937;-84
2022/05/24 11:04:22;;;;;;;6.72;4.30;;;;;;;19.92;60.45;98208.45;2168024;82;21444;-82
2022/05/24 11:07:21;;;;;;;4.90;4.42;;;;;;;20.11;59.54;98206.50;2169664;82;21012;-80
2022/05/24 11:10:22;;;;;;;4.87;4.37;;;;;;;20.24;59.70;98202.48;2168400;82;20931;-82
2022/05/24 11:13:22;;;;;;;5.72;4.78;;;;;;;20.30;59.17;98207.09;2168140;82;21484;-83
2022/05/24 11:16:23;;;;;;;5.03;4.30;;;;;;;20.33;59.48;98206.97;2169689;82;20992;-83
2022/05/24 11:19:23;;;;;;;6.97;4.28;;;;;;;20.42;58.84;98203.61;2168706;82;20933;-83
2022/05/24 11:22:24;;;;;;;5.30;4.10;;;;;;;20.59;59.20;98201.17;2169863;82;21686;-84
2022/05/24 11:25:25;;;;;;;7.10;4.53;;;;;;;20.83;58.97;98202.04;2168704;82;21613;-83
2022/05/24 11:28:24;;;;;;;5.45;3.83;;;;;;;21.15;58.11;98200.28;2170003;82;21348;-82
2022/05/24 11:31:25;;;;;;;4.65;3.95;;;;;;;21.45;57.05;98198.64;2170063;82;20945;-83
2022/05/24 11:34:25;;;;;;;5.42;4.10;;;;;;;21.63;56.89;98194.73;2167877;81;21009;-83
2022/05/24 11:37:25;;;;;;;8.53;3.75;;;;;;;21.71;55.45;98196.23;2168627;82;20988;-84
2022/05/24 11:40:26;;;;;;;4.03;3.70;;;;;;;21.64;54.56;98194.27;2169922;82;21281;-83
2022/05/24 11:43:26;;;;;;;5.60;3.58;;;;;;;21.57;54.39;98197.66;2170832;82;20996;-82
2022/05/24 11:46:27;;;;;;;9.30;3.90;;;;;;;21.65;54.51;98201.31;2169754;82;21036;-82
2022/05/24 11:49:28;;;;;;;5.28;4.30;;;;;;;22.03;54.06;98208.14;2168535;82;20940;-82
2022/05/24 11:52:28;;;;;;;10.40;8.93;;;;;;;22.12;54.58;98197.09;2168032;82;20996;-81
2022/05/24 11:55:29;;;;;;;5.00;4.50;;;;;;;22.30;55.73;98198.06;2168980;82;21388;-84
2022/05/24 11:58:29;;;;;;;4.62;4.20;;;;;;;22.51;54.51;98201.06;2169193;82;20977;-83
2022/05/24 12:01:30;;;;;;;8.23;4.25;;;;;;;22.70;54.62;98196.64;2167400;82;20957;-84
2022/05/24 12:07:55;;;;;;;5.12;4.25;;;;;;;22.79;51.60;98189.55;2168785;81;21003;-83
2022/05/24 12:10:56;;;;;;;10.08;4.17;;;;;;;22.71;50.08;98195.70;2169583;82;20948;-85
2022/05/24 12:13:56;;;;;;;13.03;3.75;;;;;;;22.78;49.62;98203.78;2168155;82;20944;-83
2022/05/24 12:16:56;;;;;;;8.68;3.92;;;;;;;22.65;47.20;98186.68;2166630;82;20956;-83
2022/05/24 12:19:56;;;;;;;4.70;4.08;;;;;;;22.86;49.29;98190.15;2166026;82;20949;-83
2022/05/24 12:22:57;;;;;;;4.95;4.45;;;;;;;23.02;48.19;98191.59;2167195;82;20989;-83
2022/05/24 12:26:01;;;;;;;4.90;4.08;;;;;;;22.97;49.26;98194.48;2167375;82;20956;-84
2022/05/24 12:29:00;;;;;;;10.82;4.55;;;;;;;23.13;48.09;98191.94;2167224;82;20932;-81
2022/05/24 12:32:01;;;;;;;6.35;3.87;;;;;;;23.34;48.71;98193.53;2166733;82;20972;-83
2022/05/24 12:35:01;;;;;;;11.60;6.10;;;;;;;23.63;47.20;98191.27;2167697;81;20993;-83
2022/05/24 12:38:02;;;;;;;6.12;4.60;;;;;;;23.66;46.95;98187.11;2167062;82;20961;-81
2022/05/24 12:41:02;;;;;;;41.20;5.95;;;;;;;23.59;47.17;98181.70;2167986;82;20909;-83
2022/05/24 12:44:02;;;;;;;5.65;3.77;;;;;;;23.64;46.98;98185.00;2167355;82;20941;-83
2022/05/24 12:47:03;;;;;;;5.87;3.75;;;;;;;23.82;46.75;98171.58;2167039;82;21376;-83
2022/05/24 12:50:03;;;;;;;7.45;4.00;;;;;;;23.92;47.03;98173.30;2168699;82;20949;-83
2022/05/24 12:53:04;;;;;;;7.08;3.77;;;;;;;24.06;45.76;98169.42;2169675;82;20989;-83
2022/05/24 12:56:04;;;;;;;5.25;3.40;;;;;;;24.13;46.37;98166.82;2169063;82;20964;-83
2022/05/24 12:59:04;;;;;;;5.12;3.62;;;;;;;24.20;44.78;98151.83;2169390;82;20961;-82
2022/05/24 13:02:05;;;;;;;3.98;3.33;;;;;;;24.21;45.48;98154.88;2168797;82;20937;-82
2022/05/24 13:05:08;;;;;;;7.95;3.50;;;;;;;24.49;45.18;98161.83;2169109;82;21009;-85
2022/05/24 13:08:09;;;;;;;4.22;3.77;;;;;;;24.71;44.37;98165.50;2169165;82;20992;-83
2022/05/24 13:11:09;;;;;;;17.60;4.70;;;;;;;24.77;43.34;98166.48;2169762;82;21601;-82
2022/05/24 13:14:10;;;;;;;9.20;3.90;;;;;;;24.88;43.69;98165.41;2167620;82;20928;-82
2022/05/24 13:17:10;;;;;;;6.65;3.25;;;;;;;25.00;43.44;98169.22;2168627;82;21303;-81
2022/05/24 13:20:10;;;;;;;6.30;3.12;;;;;;;25.18;42.39;98166.00;2170669;82;21372;-83
2022/05/24 13:23:11;;;;;;;6.15;3.45;;;;;;;25.35;42.50;98158.72;2168668;82;20950;-82
2022/05/24 13:26:11;;;;;;;5.78;3.15;;;;;;;25.60;42.42;98158.60;2168482;82;21412;-82
2022/05/24 13:29:11;;;;;;;5.80;3.35;;;;;;;25.67;41.31;98169.34;2169338;82;20993;-81
2022/05/24 13:35:31;;;;;;;4.62;3.10;;;;;;;25.61;41.16;98167.00;2168718;81;21020;-82
2022/05/24 13:38:32;;;;;;;3.25;3.05;;;;;;;25.50;40.12;98161.44;2169583;82;21395;-85
2022/05/24 13:41:32;;;;;;;16.02;4.42;;;;;;;25.36;40.82;98164.45;2169325;82;20942;-83
2022/05/24 13:44:32;;;;;;;32.67;5.40;;;;;;;25.41;41.05;98162.84;2170023;82;20965;-81
2022/05/24 13:47:33;;;;;;;6.50;3.60;;;;;;;25.68;40.43;98171.06;2168280;82;21376;-83
2022/05/24 13:50:33;;;;;;;6.58;3.62;;;;;;;25.68;40.43;98171.06;2168381;82;20929;-83
2022/05/24 13:53:33;;;;;;;3.25;2.90;;;;;;;25.95;40.25;98172.06;2169777;82;20965;-83
2022/05/24 13:56:33;;;;;;;17.98;4.53;;;;;;;26.17;39.50;98153.39;2168705;82;21382;-81
2022/05/24 13:59:34;;;;;;;8.75;3.87;;;;;;;26.14;39.71;98158.94;2170911;82;20921;-82
2022/05/24 14:02:34;;;;;;;5.97;3.60;;;;;;;26.18;40.29;98161.80;2169846;82;20953;-84
2022/05/24 14:05:35;;;;;;;7.47;3.30;;;;;;;26.01;40.08;98165.03;2169422;82;21012;-83
2022/05/24 14:08:35;;;;;;;4.30;3.37;;;;;;;25.68;40.23;98170.59;2169548;82;20964;-82
2022/05/24 14:11:36;;;;;;;4.47;3.72;;;;;;;25.37;40.44;98178.19;2170931;82;21020;-82
2022/05/24 14:14:37;;;;;;;4.37;3.25;;;;;;;25.00;41.02;98181.23;2170601;82;21013;-82
2022/05/24 14:17:37;;;;;;;7.95;3.75;;;;;;;24.70;42.16;98179.79;2169720;82;21301;-81
2022/05/24 14:20:37;;;;;;;14.68;4.47;;;;;;;24.41;41.96;98192.06;2169601;82;21060;-82
2022/05/24 14:23:38;;;;;;;14.15;3.67;;;;;;;23.96;42.21;98190.84;2170766;82;20969;-79
2022/05/24 14:26:38;;;;;;;16.73;4.08;;;;;;;23.61;42.91;98193.14;2171070;82;21076;-80
2022/05/24 14:29:39;;;;;;;7.55;3.60;;;;;;;23.54;43.32;98189.03;2170173;82;20926;-81
2022/05/24 14:32:39;;;;;;;11.12;4.58;;;;;;;23.30;43.99;98198.62;2170025;82;20929;-84
2022/05/24 14:35:39;;;;;;;5.90;3.85;;;;;;;23.28;44.28;98196.50;2169949;81;20980;-84
2022/05/24 14:38:40;;;;;;;6.70;3.75;;;;;;;23.39;44.15;98194.16;2171603;82;20945;-83
2022/05/24 14:41:40;;;;;;;5.67;3.33;;;;;;;23.56;43.66;98184.53;2168956;82;20933;-84